Time;durP1;ratioP1;P1;durP2;ratioP2;P2;SDS_P1;SDS_P2;PMS_P1;PMS_P2;Temp;Humidity;BMP_temperature;BMP_pressure;BME280_temperature;BME280_humidity;BME280_pressure;Samples;Min_cycle;Max_cycle;Signal;HPM_P1;HPM_P2
2022/08/28 00:00:33;;;;;;;19.95;3.75;;;18.80;94.30;;;;;;4968095;28;20360;-71
2022/08/28 00:02:59;;;;;;;21.08;4.20;;;18.80;94.30;;;;;;4952899;28;20038;-71
2022/08/28 00:05:28;;;;;;;14.20;3.53;;;18.80;94.40;;;;;;4953143;28;20102;-71
2022/08/28 00:07:54;;;;;;;20.67;4.03;;;18.80;94.40;;;;;;4953478;29;20335;-71
2022/08/28 00:10:22;;;;;;;14.73;3.40;;;18.70;94.40;;;;;;4952558;28;20082;-70
2022/08/28 00:12:51;;;;;;;16.48;3.95;;;18.70;94.50;;;;;;4952631;28;20027;-72
2022/08/28 00:15:18;;;;;;;;;;;18.70;94.60;;;;;;4953186;28;20090;-71
2022/08/28 00:17:44;;;;;;;12.65;3.13;;;18.70;94.60;;;;;;4952662;28;19921;-72
2022/08/28 00:20:12;;;;;;;19.85;4.25;;;18.70;94.60;;;;;;4953122;28;20114;-71
2022/08/28 00:22:39;;;;;;;16.92;4.10;;;18.80;94.60;;;;;;4967947;28;20051;-73
2022/08/28 00:25:10;;;;;;;18.20;3.50;;;18.80;94.60;;;;;;4957283;28;20031;-72
2022/08/28 00:27:51;;;;;;;16.85;5.15;;;18.80;94.60;;;;;;4959183;28;20111;-72
2022/08/28 00:30:33;;;;;;;14.30;4.10;;;18.80;94.60;;;;;;4959131;28;20031;-71
2022/08/28 00:33:03;;;;;;;10.10;3.70;;;18.70;94.70;;;;;;4959969;28;20035;-71
2022/08/28 00:35:29;;;;;;;16.25;3.75;;;18.60;94.80;;;;;;4959210;28;20027;-71
2022/08/28 00:37:56;;;;;;;18.73;4.38;;;18.60;94.80;;;;;;4959317;28;20485;-70
2022/08/28 00:40:25;;;;;;;23.67;4.10;;;18.60;94.80;;;;;;4973890;28;20038;-70
2022/08/28 00:42:51;;;;;;;20.58;4.32;;;18.70;94.80;;;;;;4958882;28;20023;-71
2022/08/28 00:45:18;;;;;;;14.63;3.25;;;18.80;94.60;;;;;;4959162;28;20378;-72
2022/08/28 00:47:44;;;;;;;20.63;4.63;;;18.80;94.70;;;;;;4958849;28;20085;-71
2022/08/28 00:50:16;;;;;;;13.57;3.95;;;18.70;94.70;;;;;;4959323;28;20031;-69
2022/08/28 00:52:46;;;;;;;15.10;4.10;;;18.50;94.80;;;;;;4959478;28;20038;-71
2022/08/28 00:55:21;;;;;;;14.15;4.32;;;18.60;94.80;;;;;;4959757;28;20454;-71
2022/08/28 00:57:51;;;;;;;21.90;4.70;;;18.60;94.90;;;;;;4958814;28;20051;-71
2022/08/28 01:00:34;;;;;;;19.73;5.15;;;18.50;95.00;;;;;;4959164;28;20031;-71
2022/08/28 01:03:01;;;;;;;17.52;4.18;;;18.40;95.30;;;;;;4958774;28;20039;-70
2022/08/28 01:05:28;;;;;;;12.25;3.75;;;18.50;95.10;;;;;;4958846;28;20027;-70
2022/08/28 01:07:57;;;;;;;14.63;3.67;;;18.50;95.00;;;;;;4974229;28;20051;-70
2022/08/28 01:10:25;;;;;;;18.40;4.10;;;18.70;94.90;;;;;;4958439;28;20146;-71
2022/08/28 01:12:53;;;;;;;20.42;3.92;;;18.70;94.80;;;;;;4958922;28;20118;-71
2022/08/28 01:15:23;;;;;;;21.45;4.63;;;18.70;94.90;;;;;;4973824;28;20045;-70
2022/08/28 01:17:53;;;;;;;15.13;4.40;;;18.70;94.80;;;;;;4958703;28;20110;-71
2022/08/28 01:20:22;;;;;;;13.52;3.17;;;18.70;94.80;;;;;;4959038;28;20023;-70
2022/08/28 01:23:15;;;;;;;13.35;3.85;;;18.60;94.80;;;;;;4959009;28;20121;-71
2022/08/28 01:25:41;;;;;;;19.20;3.50;;;18.70;94.80;;;;;;4958649;29;20054;-71
2022/08/28 01:28:11;;;;;;;15.48;4.18;;;18.80;94.80;;;;;;4974391;28;20544;-71
2022/08/28 01:30:43;;;;;;;13.48;3.00;;;18.60;94.70;;;;;;4959476;28;20047;-71
2022/08/28 01:33:09;;;;;;;15.85;4.38;;;18.60;94.90;;;;;;4960959;28;20057;-72
2022/08/28 01:35:39;;;;;;;16.92;3.38;;;18.60;94.80;;;;;;4969822;28;20487;-72
2022/08/28 01:38:05;;;;;;;14.13;3.72;;;18.50;94.90;;;;;;4994855;28;20044;-71
2022/08/28 01:40:35;;;;;;;14.40;3.55;;;18.50;95.00;;;;;;4994634;28;20026;-71
2022/08/28 01:43:08;;;;;;;12.70;3.67;;;18.60;94.90;;;;;;4994141;28;20031;-71
2022/08/28 01:45:36;;;;;;;9.73;3.50;;;18.60;95.00;;;;;;4994278;28;20058;-70
2022/08/28 01:48:04;;;;;;;14.90;3.58;;;18.60;94.90;;;;;;4994262;28;20042;-71
2022/08/28 01:50:31;;;;;;;17.33;4.72;;;18.50;95.00;;;;;;4994005;28;20022;-70
2022/08/28 01:52:56;;;;;;;27.85;4.18;;;18.60;95.00;;;;;;4994444;28;20082;-70
2022/08/28 01:55:22;;;;;;;12.70;3.22;;;18.50;95.00;;;;;;4993864;28;20341;-70
2022/08/28 01:57:51;;;;;;;17.52;3.53;;;18.50;95.10;;;;;;4993815;28;20342;-69
2022/08/28 02:00:18;;;;;;;14.80;3.85;;;18.40;95.40;;;;;;4993849;28;20121;-72
2022/08/28 02:02:44;;;;;;;21.47;3.67;;;18.50;95.10;;;;;;4993828;28;20090;-71
2022/08/28 02:05:10;;;;;;;11.63;3.40;;;18.40;95.20;;;;;;4994515;28;20536;-71
2022/08/28 02:07:36;;;;;;;20.42;4.18;;;18.40;95.10;;;;;;4994076;28;20483;-71
2022/08/28 02:10:04;;;;;;;18.52;3.70;;;18.40;95.10;;;;;;4992380;28;20046;-71
2022/08/28 02:12:30;;;;;;;10.57;3.45;;;18.40;95.10;;;;;;4993417;28;20034;-71
2022/08/28 02:14:56;;;;;;;12.02;3.80;;;18.40;95.20;;;;;;4993604;28;20032;-71
2022/08/28 02:17:22;;;;;;;15.45;4.05;;;18.50;95.10;;;;;;4992435;28;20022;-71
2022/08/28 02:19:47;;;;;;;16.92;3.92;;;18.30;95.20;;;;;;4993738;28;20026;-72
2022/08/28 02:22:13;;;;;;;11.95;2.85;;;18.20;95.40;;;;;;4993369;28;20041;-69
2022/08/28 02:24:39;;;;;;;14.07;3.78;;;18.30;95.20;;;;;;4993279;28;20042;-71
2022/08/28 02:27:05;;;;;;;20.77;3.30;;;18.30;95.30;;;;;;4993189;28;20088;-72
2022/08/28 02:29:31;;;;;;;12.85;3.05;;;18.40;95.30;;;;;;4993225;28;20107;-71
2022/08/28 02:31:56;;;;;;;13.40;3.33;;;18.30;95.20;;;;;;4993551;28;20457;-70
2022/08/28 02:34:22;;;;;;;15.68;3.58;;;18.20;95.40;;;;;;4993381;28;20039;-71
2022/08/28 02:36:48;;;;;;;14.43;3.50;;;18.30;95.30;;;;;;4992242;28;20057;-71
2022/08/28 02:39:14;;;;;;;13.27;3.83;;;18.30;95.40;;;;;;4993034;28;20042;-71
2022/08/28 02:41:40;;;;;;;14.70;3.30;;;18.30;95.50;;;;;;4992982;28;20117;-72
2022/08/28 02:44:06;;;;;;;14.25;3.47;;;18.40;95.50;;;;;;4992667;28;20109;-72
2022/08/28 02:46:32;;;;;;;14.95;3.60;;;18.40;95.50;;;;;;4992679;28;20102;-71
2022/08/28 02:48:58;;;;;;;19.70;3.42;;;18.40;95.50;;;;;;4992789;28;20030;-72
2022/08/28 02:51:24;;;;;;;18.35;4.07;;;18.40;95.40;;;;;;4991707;28;20313;-71
2022/08/28 02:53:51;;;;;;;17.90;3.85;;;18.30;95.50;;;;;;4992691;28;20139;-71
2022/08/28 02:56:17;;;;;;;12.38;3.70;;;18.30;95.50;;;;;;4991590;28;20396;-71
2022/08/28 02:58:43;;;;;;;13.88;4.18;;;18.30;95.70;;;;;;4992983;28;20160;-72
2022/08/28 03:01:11;;;;;;;12.48;3.53;;;18.30;95.70;;;;;;4992702;28;20365;-71
2022/08/28 03:03:39;;;;;;;19.60;4.40;;;18.10;95.80;;;;;;4992508;28;20115;-72
2022/08/28 03:06:08;;;;;;;14.27;3.85;;;18.00;95.80;;;;;;4992594;28;20546;-71
2022/08/28 03:08:34;;;;;;;10.40;2.92;;;18.20;95.80;;;;;;4992418;28;20045;-72
2022/08/28 03:11:00;;;;;;;15.43;3.70;;;18.20;95.60;;;;;;4992646;28;20043;-71
2022/08/28 03:13:25;;;;;;;12.82;3.22;;;18.20;95.60;;;;;;4992651;28;20030;-71
2022/08/28 03:15:51;;;;;;;19.73;3.55;;;18.20;95.60;;;;;;4992481;28;20377;-71
2022/08/28 03:18:18;;;;;;;15.40;3.00;;;18.40;95.50;;;;;;4992232;28;20046;-71
2022/08/28 03:20:45;;;;;;;13.48;3.33;;;18.10;95.50;;;;;;4992410;28;20031;-71
2022/08/28 03:23:27;;;;;;;12.15;3.70;;;18.20;95.60;;;;;;4991550;28;20120;-71
2022/08/28 03:25:58;;;;;;;12.20;2.95;;;18.00;95.60;;;;;;4992236;28;20042;-71
2022/08/28 03:28:27;;;;;;;11.75;3.63;;;17.90;95.80;;;;;;4992052;28;20065;-70
2022/08/28 03:30:54;;;;;;;12.23;2.88;;;18.10;95.70;;;;;;4991988;28;20030;-70
2022/08/28 03:33:20;;;;;;;13.02;3.17;;;18.00;95.60;;;;;;4991970;28;20177;-71
2022/08/28 03:35:46;;;;;;;15.63;3.97;;;18.00;95.70;;;;;;4991862;28;20030;-71
2022/08/28 03:38:12;;;;;;;16.52;3.72;;;17.90;95.80;;;;;;4992313;28;20027;-70
2022/08/28 03:40:41;;;;;;;13.43;2.92;;;18.10;95.70;;;;;;4993027;28;20030;-70
2022/08/28 03:43:10;;;;;;;12.85;2.97;;;18.00;95.60;;;;;;4991996;28;20039;-71
2022/08/28 03:45:36;;;;;;;16.08;3.28;;;18.00;95.70;;;;;;4991986;28;20456;-71
2022/08/28 03:48:03;;;;;;;12.98;2.97;;;17.90;95.80;;;;;;4992050;28;20045;-70
2022/08/28 03:50:29;;;;;;;11.90;2.92;;;17.80;95.90;;;;;;4991785;28;20034;-71
2022/08/28 03:52:54;;;;;;;18.58;3.53;;;17.80;96.00;;;;;;4992525;28;20030;-71
2022/08/28 03:55:21;;;;;;;7.68;3.00;;;17.70;96.10;;;;;;4991638;28;20066;-70
2022/08/28 03:57:47;;;;;;;15.00;3.67;;;17.70;96.10;;;;;;4991768;28;20041;-71
2022/08/28 04:00:13;;;;;;;16.77;3.53;;;17.80;96.10;;;;;;4991000;28;20096;-70
2022/08/28 04:02:40;;;;;;;17.35;3.42;;;17.70;96.10;;;;;;4991603;28;20037;-70
2022/08/28 04:05:07;;;;;;;15.32;3.38;;;17.80;96.00;;;;;;4991996;28;20050;-71
2022/08/28 04:07:33;;;;;;;18.92;3.50;;;17.70;96.10;;;;;;4991815;28;20461;-70
2022/08/28 04:09:59;;;;;;;11.70;3.05;;;17.80;96.10;;;;;;4991351;28;20408;-71
2022/08/28 04:12:25;;;;;;;10.80;2.72;;;17.90;96.00;;;;;;4991607;28;20038;-71
2022/08/28 04:14:50;;;;;;;15.88;3.22;;;17.90;95.90;;;;;;4991417;28;20113;-71
2022/08/28 04:17:16;;;;;;;13.90;3.38;;;17.90;96.20;;;;;;4990381;28;20027;-71
2022/08/28 04:19:43;;;;;;;13.45;3.13;;;17.80;96.00;;;;;;4991683;28;20037;-69
2022/08/28 04:22:09;;;;;;;17.77;3.35;;;17.70;96.20;;;;;;4991621;28;20030;-71
2022/08/28 04:24:35;;;;;;;9.63;3.72;;;17.70;96.20;;;;;;4991291;28;20039;-71
2022/08/28 04:27:01;;;;;;;12.02;3.10;;;17.70;96.20;;;;;;4991272;28;20081;-70
2022/08/28 04:29:28;;;;;;;12.63;3.13;;;17.60;96.30;;;;;;4991257;28;20105;-70
2022/08/28 04:31:55;;;;;;;14.82;3.50;;;17.70;96.30;;;;;;4991707;28;20019;-70
2022/08/28 04:34:20;;;;;;;17.10;3.25;;;17.70;96.20;;;;;;4990135;28;20376;-70
2022/08/28 04:36:50;;;;;;;11.70;3.22;;;17.80;96.10;;;;;;4991205;28;20041;-71
2022/08/28 04:39:15;;;;;;;7.88;3.05;;;17.80;96.10;;;;;;4990201;28;20089;-70
2022/08/28 04:41:41;;;;;;;11.90;3.15;;;17.80;96.10;;;;;;4991251;28;20057;-69
2022/08/28 04:44:08;;;;;;;13.60;2.95;;;17.70;96.20;;;;;;4991565;28;20487;-70
2022/08/28 04:46:35;;;;;;;14.43;3.75;;;17.70;96.40;;;;;;4991414;28;20053;-70
2022/08/28 04:49:03;;;;;;;11.55;3.35;;;17.70;96.50;;;;;;4991050;28;20063;-69
2022/08/28 04:51:29;;;;;;;15.25;3.42;;;17.70;96.50;;;;;;4991159;28;20031;-70
2022/08/28 04:53:55;;;;;;;16.77;3.17;;;17.80;96.60;;;;;;4991296;28;20342;-70
2022/08/28 04:56:21;;;;;;;13.63;3.63;;;17.80;96.50;;;;;;4991084;28;20037;-71
2022/08/28 04:58:47;;;;;;;18.77;3.92;;;17.80;96.50;;;;;;4991280;28;20022;-71
2022/08/28 05:01:17;;;;;;;12.85;3.35;;;17.80;96.70;;;;;;4990900;28;20031;-71
2022/08/28 05:03:44;;;;;;;16.75;3.25;;;17.80;96.60;;;;;;4991125;28;20022;-71
2022/08/28 05:06:12;;;;;;;13.52;4.10;;;17.80;96.60;;;;;;4991046;28;20068;-71
2022/08/28 05:08:38;;;;;;;16.27;3.50;;;17.90;96.60;;;;;;4990915;28;20030;-71
2022/08/28 05:11:18;;;;;;;21.80;3.70;;;17.80;96.60;;;;;;4993319;28;20046;-71
2022/08/28 05:13:44;;;;;;;11.85;3.25;;;17.80;96.60;;;;;;4994661;28;20077;-70
2022/08/28 05:16:11;;;;;;;15.32;3.80;;;17.60;97.00;;;;;;4993392;28;20097;-70
2022/08/28 05:18:36;;;;;;;24.50;4.68;;;17.80;96.80;;;;;;4994461;28;20034;-70
2022/08/28 05:21:02;;;;;;;17.90;3.65;;;17.70;96.80;;;;;;4993356;28;20037;-71
2022/08/28 05:23:29;;;;;;;12.93;3.38;;;17.50;97.10;;;;;;4994461;28;20038;-70
2022/08/28 05:25:57;;;;;;;13.60;3.47;;;17.40;97.30;;;;;;4994773;28;20022;-70
2022/08/28 05:28:25;;;;;;;12.53;3.70;;;17.70;97.10;;;;;;4994471;28;20030;-71
2022/08/28 05:30:51;;;;;;;16.50;3.50;;;17.60;97.10;;;;;;4994174;28;20260;-70
2022/08/28 05:33:18;;;;;;;15.00;3.65;;;17.60;97.00;;;;;;4993061;28;20038;-70
2022/08/28 05:35:45;;;;;;;15.52;4.03;;;17.60;97.10;;;;;;4994196;28;20038;-69
2022/08/28 05:38:13;;;;;;;16.38;3.45;;;17.50;97.20;;;;;;4994582;28;20023;-69
2022/08/28 05:40:43;;;;;;;14.57;3.50;;;17.50;97.20;;;;;;4994362;28;20030;-68
2022/08/28 05:43:11;;;;;;;12.88;3.50;;;17.70;97.10;;;;;;4994091;28;20029;-70
2022/08/28 05:45:37;;;;;;;11.43;3.78;;;17.70;97.00;;;;;;4993982;28;20069;-72
2022/08/28 05:48:03;;;;;;;15.02;3.35;;;17.60;97.10;;;;;;4994193;28;20062;-70
2022/08/28 05:50:30;;;;;;;13.65;3.22;;;17.50;97.10;;;;;;4992655;28;20033;-71
2022/08/28 05:52:56;;;;;;;12.45;3.22;;;17.40;97.40;;;;;;4993239;28;20030;-70
2022/08/28 05:55:22;;;;;;;14.88;3.08;;;17.40;97.60;;;;;;4994126;28;20065;-71
2022/08/28 05:57:48;;;;;;;15.02;3.17;;;17.50;97.30;;;;;;4993967;28;20038;-70
2022/08/28 06:00:14;;;;;;;10.45;3.45;;;17.60;97.40;;;;;;4993694;28;20057;-72
2022/08/28 06:02:40;;;;;;;10.48;2.83;;;17.80;97.20;;;;;;4993751;28;20109;-72
2022/08/28 06:05:07;;;;;;;16.00;3.85;;;17.80;97.00;;;;;;4994336;28;20120;-71
2022/08/28 06:07:33;;;;;;;11.93;3.30;;;17.80;97.00;;;;;;4993722;28;20034;-71
2022/08/28 06:09:59;;;;;;;11.85;3.65;;;17.90;96.90;;;;;;4993531;28;20053;-71
2022/08/28 06:12:24;;;;;;;17.55;3.17;;;17.90;96.90;;;;;;4993644;28;20153;-70
2022/08/28 06:14:50;;;;;;;17.80;3.55;;;17.90;96.80;;;;;;4993452;28;20039;-71
2022/08/28 06:17:16;;;;;;;17.20;4.45;;;17.90;96.70;;;;;;4993411;28;20026;-69
2022/08/28 06:19:41;;;;;;;16.60;3.83;;;18.00;96.80;;;;;;4994385;28;20030;-70
2022/08/28 06:22:09;;;;;;;19.23;3.75;;;18.20;96.50;;;;;;4992680;28;20046;-72
2022/08/28 06:24:36;;;;;;;12.90;2.92;;;18.30;96.30;;;;;;4993362;28;20030;-71
2022/08/28 06:27:02;;;;;;;10.75;3.03;;;18.20;96.20;;;;;;4993613;28;20039;-72
2022/08/28 06:29:28;;;;;;;13.95;2.92;;;18.10;96.10;;;;;;4993253;28;20096;-72
2022/08/28 06:32:00;;;;;;;22.92;4.50;;;18.10;96.20;;;;;;4993607;28;20027;-72
2022/08/28 06:34:27;;;;;;;17.05;3.80;;;18.00;96.40;;;;;;4993099;28;20121;-72
2022/08/28 06:36:53;;;;;;;19.83;3.50;;;18.10;96.40;;;;;;4992052;28;20030;-71
2022/08/28 06:39:20;;;;;;;14.25;3.65;;;18.30;96.20;;;;;;4992949;28;20373;-70
2022/08/28 06:41:45;;;;;;;11.23;3.42;;;18.20;96.30;;;;;;4992020;28;20038;-71
2022/08/28 06:44:18;;;;;;;14.55;3.50;;;18.30;96.20;;;;;;4993525;28;20039;-71
2022/08/28 06:46:45;;;;;;;10.38;2.78;;;18.00;96.10;;;;;;4992970;28;20035;-71
2022/08/28 06:49:11;;;;;;;13.32;3.40;;;18.00;96.40;;;;;;4992865;28;20463;-71
2022/08/28 06:51:37;;;;;;;14.38;3.00;;;18.10;96.30;;;;;;4992853;28;20031;-70
2022/08/28 06:54:03;;;;;;;14.05;2.95;;;18.20;96.20;;;;;;4991576;28;20061;-70
2022/08/28 06:56:30;;;;;;;11.50;3.28;;;18.10;96.20;;;;;;4991558;28;20030;-70
2022/08/28 06:58:57;;;;;;;13.23;3.08;;;18.20;96.20;;;;;;4992893;28;20504;-72
2022/08/28 07:01:29;;;;;;;16.75;3.17;;;18.30;96.00;;;;;;4992830;28;20039;-69
2022/08/28 07:03:58;;;;;;;10.45;2.85;;;18.30;95.90;;;;;;4991449;28;20034;-71
2022/08/28 07:06:29;;;;;;;14.90;3.35;;;18.30;96.00;;;;;;4992438;28;20121;-71
2022/08/28 07:08:54;;;;;;;13.82;3.60;;;18.50;95.70;;;;;;4992486;28;20038;-70
2022/08/28 07:11:27;;;;;;;8.70;2.88;;;18.50;95.70;;;;;;4992036;28;20185;-71
2022/08/28 07:13:54;;;;;;;10.85;2.95;;;18.60;95.80;;;;;;4992522;28;20438;-70
2022/08/28 07:16:22;;;;;;;12.60;2.83;;;18.70;95.40;;;;;;4992255;28;20456;-71
2022/08/28 07:18:48;;;;;;;8.40;2.92;;;18.80;95.50;;;;;;4992298;28;20093;-71
2022/08/28 07:21:14;;;;;;;9.10;3.13;;;18.80;95.30;;;;;;4991093;28;20027;-72
2022/08/28 07:23:41;;;;;;;14.18;3.55;;;18.80;95.10;;;;;;4992249;28;20409;-73
2022/08/28 07:26:14;;;;;;;11.93;2.80;;;18.80;95.10;;;;;;4992566;28;20468;-73
2022/08/28 07:28:40;;;;;;;10.70;2.80;;;18.70;94.90;;;;;;4992464;28;20468;-72
2022/08/28 07:31:16;;;;;;;11.55;3.03;;;18.70;95.00;;;;;;4991759;28;20030;-73
2022/08/28 07:33:42;;;;;;;14.15;2.92;;;18.80;95.40;;;;;;4991123;28;20026;-73
2022/08/28 07:36:15;;;;;;;11.88;3.35;;;18.90;95.10;;;;;;4990936;28;20485;-73
2022/08/28 07:38:40;;;;;;;10.45;2.80;;;19.20;94.80;;;;;;4991855;28;20042;-73
2022/08/28 07:41:34;;;;;;;12.52;2.60;;;19.10;94.50;;;;;;4992288;28;20026;-72
2022/08/28 07:46:44;;;;;;;13.10;2.83;;;19.20;94.10;;;;;;5004774;28;20133;-72
2022/08/28 07:49:10;;;;;;;13.18;2.90;;;19.20;94.30;;;;;;4991870;28;20428;-71
2022/08/28 07:51:36;;;;;;;11.98;3.05;;;19.10;94.00;;;;;;4991817;28;20030;-72
2022/08/28 07:54:03;;;;;;;9.43;3.00;;;19.00;94.40;;;;;;4991601;28;20034;-72
2022/08/28 07:56:29;;;;;;;14.05;2.90;;;19.10;94.40;;;;;;4991865;28;20019;-74
2022/08/28 07:58:57;;;;;;;7.63;2.33;;;19.10;93.80;;;;;;4992178;28;20034;-74
2022/08/28 08:01:23;;;;;;;13.53;2.87;;;19.20;94.00;;;;;;4991955;28;20093;-74
2022/08/28 08:03:49;;;;;;;10.18;2.72;;;19.30;93.40;;;;;;4991580;28;20169;-73
2022/08/28 08:06:15;;;;;;;6.95;2.10;;;19.40;93.90;;;;;;4991519;28;20038;-74
2022/08/28 08:08:41;;;;;;;10.40;3.17;;;19.40;92.60;;;;;;4991462;28;20172;-72
2022/08/28 08:11:12;;;;;;;9.57;2.40;;;19.50;92.60;;;;;;4991949;28;20087;-73
2022/08/28 08:13:39;;;;;;;11.77;2.40;;;19.60;92.40;;;;;;4991451;28;20023;-72
2022/08/28 08:16:12;;;;;;;12.35;2.33;;;19.80;92.10;;;;;;4991452;28;20161;-73
2022/08/28 08:18:39;;;;;;;13.27;2.60;;;19.90;91.80;;;;;;4991509;28;20113;-74
2022/08/28 08:21:13;;;;;;;8.07;2.08;;;20.00;91.90;;;;;;4991528;28;20034;-73
2022/08/28 08:23:40;;;;;;;7.85;2.17;;;20.10;91.30;;;;;;4991599;28;20035;-72
2022/08/28 08:26:13;;;;;;;10.07;2.22;;;20.30;91.40;;;;;;4991954;28;20045;-74
2022/08/28 08:28:39;;;;;;;11.05;2.90;;;20.60;91.00;;;;;;4991428;28;20030;-74
2022/08/28 08:31:13;;;;;;;9.88;2.22;;;20.80;91.30;;;;;;4991469;28;20034;-73
2022/08/28 08:33:43;;;;;;;9.55;2.20;;;21.10;90.70;;;;;;4991505;28;20488;-72
2022/08/28 08:36:10;;;;;;;8.40;2.28;;;21.20;87.90;;;;;;4991443;28;20049;-72
2022/08/28 08:38:37;;;;;;;9.43;2.00;;;22.10;88.10;;;;;;4991175;28;20065;-72
2022/08/28 08:41:19;;;;;;;10.65;2.70;;;23.10;83.90;;;;;;4991692;28;20373;-72
2022/08/28 08:44:13;;;;;;;9.63;2.47;;;24.50;83.20;;;;;;4991395;28;20358;-71
2022/08/28 08:47:13;;;;;;;9.68;2.33;;;24.40;77.50;;;;;;4990535;28;20036;-73
2022/08/28 08:49:47;;;;;;;7.93;2.28;;;23.80;78.70;;;;;;4994471;28;20027;-75
2022/08/28 08:52:24;;;;;;;18.35;2.80;;;23.70;81.10;;;;;;4995124;28;20069;-74
2022/08/28 08:55:14;;;;;;;10.02;2.30;;;24.00;81.90;;;;;;4995090;28;20023;-76
2022/08/28 08:57:42;;;;;;;10.68;2.33;;;25.10;78.60;;;;;;4995107;28;20400;-75
2022/08/28 09:00:10;;;;;;;11.07;2.40;;;24.90;78.10;;;;;;4994622;28;20042;-71
2022/08/28 09:02:44;;;;;;;12.18;2.65;;;24.40;74.70;;;;;;4994826;28;20039;-71
2022/08/28 09:05:15;;;;;;;9.90;2.25;;;24.30;74.40;;;;;;4995199;28;20037;-73
2022/08/28 09:07:55;;;;;;;9.57;2.58;;;25.30;74.60;;;;;;4994810;28;20038;-73
2022/08/28 09:10:23;;;;;;;10.45;2.75;;;27.00;75.40;;;;;;4994519;28;20108;-73
2022/08/28 09:13:16;;;;;;;8.25;2.10;;;28.60;70.60;;;;;;4994747;28;20125;-74
2022/08/28 09:15:45;;;;;;;7.78;2.30;;;29.40;63.60;;;;;;4994728;28;20026;-73
2022/08/28 09:18:26;;;;;;;12.73;2.38;;;29.90;62.40;;;;;;4994693;28;20118;-73
2022/08/28 09:20:54;;;;;;;10.25;2.38;;;29.90;60.00;;;;;;4994758;28;20049;-73
2022/08/28 09:23:26;;;;;;;5.72;2.05;;;28.20;58.50;;;;;;4994307;28;20022;-72
2022/08/28 09:26:13;;;;;;;10.30;2.50;;;28.40;63.10;;;;;;4994689;28;20342;-73
2022/08/28 09:28:40;;;;;;;8.85;2.80;;;29.20;59.80;;;;;;4993422;28;20034;-73
2022/08/28 09:31:15;;;;;;;7.80;2.92;;;29.80;57.40;;;;;;4994740;28;20026;-71
2022/08/28 09:33:47;;;;;;;13.35;2.38;;;28.20;58.40;;;;;;4994660;28;20148;-73
2022/08/28 09:36:39;;;;;;;14.60;2.80;;;28.40;60.20;;;;;;4994920;28;20519;-72
2022/08/28 09:39:17;;;;;;;10.35;2.78;;;28.30;59.90;;;;;;4994307;28;20050;-72
2022/08/28 09:45:17;;;;;;;6.13;2.20;;;28.10;58.90;;;;;;4994100;28;20097;-73
2022/08/28 09:47:47;;;;;;;5.78;2.25;;;28.20;57.10;;;;;;4986263;28;20129;-73
2022/08/28 09:50:23;;;;;;;3.97;2.00;;;28.50;57.40;;;;;;4993373;28;20027;-71
2022/08/28 09:52:51;;;;;;;11.82;2.13;;;28.40;56.10;;;;;;4994006;28;20061;-71
2022/08/28 09:55:21;;;;;;;8.75;2.55;;;29.70;57.30;;;;;;4994013;28;20030;-72
2022/08/28 09:57:47;;;;;;;18.73;2.55;;;30.80;54.80;;;;;;4991580;28;20046;-74
2022/08/28 10:00:13;;;;;;;12.50;3.20;;;30.60;53.80;;;;;;4993811;28;20038;-72
2022/08/28 10:02:49;;;;;;;8.05;2.63;;;30.60;53.70;;;;;;4994018;28;20034;-70
2022/08/28 10:05:25;;;;;;;5.63;2.15;;;30.20;52.40;;;;;;4994056;28;20037;-72
2022/08/28 10:08:00;;;;;;;8.50;2.40;;;31.00;54.00;;;;;;4993780;28;20038;-71
2022/08/28 10:10:37;;;;;;;6.72;2.22;;;30.10;51.80;;;;;;4993593;28;20137;-73
2022/08/28 10:13:03;;;;;;;;;;;31.20;52.90;;;;;;4994096;28;20346;-72
2022/08/28 10:15:48;;;;;;;6.68;2.45;;;29.20;51.60;;;;;;4993531;28;19909;-72
2022/08/28 10:18:28;;;;;;;8.38;2.13;;;29.40;52.80;;;;;;4993518;28;20038;-72
2022/08/28 10:21:19;;;;;;;6.28;2.63;;;29.70;53.50;;;;;;4993570;28;20117;-72
2022/08/28 10:24:08;;;;;;;9.55;2.92;;;31.50;51.90;;;;;;4993360;28;20023;-71
2022/08/28 10:26:55;;;;;;;6.55;2.88;;;32.60;50.00;;;;;;4974168;28;20471;-74
2022/08/28 10:29:51;;;;;;;9.48;2.10;;;32.30;48.20;;;;;;4993255;28;20452;-71
2022/08/28 10:32:20;;;;;;;7.93;2.90;;;32.40;48.90;;;;;;4993042;28;20121;-72
2022/08/28 10:35:10;;;;;;;5.97;2.10;;;31.70;49.40;;;;;;4993484;28;20117;-73
2022/08/28 10:37:59;;;;;;;5.30;1.95;;;32.10;48.90;;;;;;4993225;28;20035;-72
2022/08/28 10:40:45;;;;;;;5.75;2.65;;;31.80;48.50;;;;;;4993114;28;20363;-72
2022/08/28 10:43:17;;;;;;;7.35;2.13;;;31.10;48.70;;;;;;4992850;28;20117;-72
2022/08/28 10:45:44;;;;;;;7.57;2.20;;;30.20;48.70;;;;;;4991775;28;20030;-71
2022/08/28 10:48:27;;;;;;;8.75;2.75;;;29.40;50.30;;;;;;4992660;28;20100;-70
2022/08/28 10:51:03;;;;;;;7.88;2.38;;;29.50;51.90;;;;;;4992769;28;20081;-71
2022/08/28 10:53:33;;;;;;;8.75;2.38;;;30.90;50.40;;;;;;4992570;28;20030;-71
2022/08/28 10:56:11;;;;;;;11.13;2.47;;;31.00;49.10;;;;;;4993083;28;20109;-71
2022/08/28 10:58:37;;;;;;;;;;;30.70;49.50;;;;;;4991897;28;20044;-72
2022/08/28 11:01:21;;;;;;;12.63;2.95;;;30.70;48.90;;;;;;4992693;28;20342;-71
2022/08/28 11:03:50;;;;;;;7.93;2.28;;;29.00;50.00;;;;;;4992534;28;20030;-73
2022/08/28 11:06:43;;;;;;;10.40;2.72;;;28.70;52.20;;;;;;4992594;28;20499;-72
2022/08/28 11:09:24;;;;;;;9.18;2.25;;;28.60;52.50;;;;;;4992381;28;20125;-70
2022/08/28 11:11:59;;;;;;;12.82;2.78;;;28.10;52.20;;;;;;4992254;28;20042;-73
2022/08/28 11:14:39;;;;;;;10.52;2.53;;;27.90;52.70;;;;;;4991317;28;20326;-75
2022/08/28 11:17:24;;;;;;;8.02;2.53;;;27.60;56.10;;;;;;4992849;28;20026;-76
2022/08/28 11:20:28;;;;;;;10.32;2.50;;;27.80;54.20;;;;;;4991510;28;20137;-77
2022/08/28 11:23:28;;;;;;;8.00;2.47;;;27.50;54.70;;;;;;4951654;29;20312;-76
2022/08/28 11:26:21;;;;;;;8.30;2.55;;;27.30;55.10;;;;;;4938446;29;20050;-72
2022/08/28 11:28:46;;;;;;;12.10;2.38;;;26.70;55.90;;;;;;4987571;28;20042;-78
2022/08/28 11:31:12;;;;;;;5.28;1.77;;;26.80;55.30;;;;;;4991233;28;20034;-77
2022/08/28 11:33:48;;;;;;;6.78;1.75;;;26.30;55.20;;;;;;4992327;28;20030;-79
2022/08/28 11:36:28;;;;;;;7.70;1.90;;;25.70;55.70;;;;;;4992300;28;20088;-78
2022/08/28 11:38:54;;;;;;;6.45;2.15;;;25.70;56.50;;;;;;4992298;28;20030;-78
2022/08/28 11:41:37;;;;;;;9.55;2.03;;;25.50;56.70;;;;;;4992029;28;20417;-79
2022/08/28 11:44:11;;;;;;;8.70;2.33;;;25.60;57.50;;;;;;4991416;28;20027;-76
2022/08/28 11:46:40;;;;;;;9.25;2.33;;;25.60;58.10;;;;;;4990966;28;20130;-77
2022/08/28 11:49:25;;;;;;;8.55;2.58;;;25.90;58.10;;;;;;4990876;28;20110;-75
2022/08/28 11:52:18;;;;;;;6.57;2.28;;;26.40;59.10;;;;;;4991728;28;20084;-76
2022/08/28 11:55:24;;;;;;;7.45;2.10;;;26.70;57.70;;;;;;4990934;28;20034;-80
2022/08/28 11:57:52;;;;;;;10.90;2.40;;;26.60;55.00;;;;;;4991993;28;20364;-78
2022/08/28 12:00:47;;;;;;;6.50;2.28;;;26.00;56.50;;;;;;4990721;28;20497;-75
2022/08/28 12:03:25;;;;;;;8.45;2.38;;;25.90;56.10;;;;;;4991595;28;20038;-74
2022/08/28 12:05:54;;;;;;;10.57;2.25;;;25.70;56.70;;;;;;4991647;28;20034;-73
2022/08/28 12:08:55;;;;;;;8.55;2.63;;;25.70;56.70;;;;;;4991827;28;20018;-73
2022/08/28 12:12:13;;;;;;;8.77;2.10;;;25.50;56.90;;;;;;4950390;29;20074;-72
2022/08/28 12:14:39;;;;;;;5.68;2.00;;;25.20;57.60;;;;;;4966868;28;20026;-79
2022/08/28 12:17:23;;;;;;;7.90;2.00;;;25.10;57.40;;;;;;4992297;28;20208;-75
2022/08/28 12:20:09;;;;;;;5.28;1.85;;;24.90;56.80;;;;;;4990894;28;20034;-75
2022/08/28 12:22:51;;;;;;;9.68;1.85;;;25.10;56.90;;;;;;4991622;28;20480;-73
2022/08/28 12:25:40;;;;;;;6.63;2.20;;;25.00;56.30;;;;;;4991494;28;20306;-73
2022/08/28 12:28:20;;;;;;;9.15;3.13;;;24.90;56.90;;;;;;4990067;28;20101;-73
2022/08/28 12:32:09;;;;;;;8.57;2.17;;;25.00;56.80;;;;;;4991212;28;20200;-73
2022/08/28 12:34:18;;;;;;;7.10;2.50;;;25.10;56.70;;;;;;4991162;28;20428;-73
2022/08/28 12:36:44;;;;;;;12.98;3.85;;;24.90;57.30;;;;;;4991422;28;20377;-72
2022/08/28 12:39:17;;;;;;;5.15;1.98;;;24.80;58.00;;;;;;4991126;28;20291;-73
2022/08/28 12:41:43;;;;;;;6.10;1.98;;;24.90;57.70;;;;;;4991192;28;20031;-73
2022/08/28 12:44:11;;;;;;;11.20;2.15;;;25.20;57.60;;;;;;4991757;28;20046;-73
2022/08/28 12:46:41;;;;;;;4.60;1.63;;;25.20;57.20;;;;;;4990993;28;20031;-74
2022/08/28 12:49:29;;;;;;;9.23;1.77;;;25.40;57.40;;;;;;4990006;28;20065;-75
2022/08/28 12:52:12;;;;;;;4.47;1.70;;;25.50;56.90;;;;;;4984440;28;20041;-75
2022/08/28 12:54:39;;;;;;;4.07;1.88;;;25.50;56.50;;;;;;4967164;28;20051;-74
2022/08/28 12:57:09;;;;;;;5.93;1.92;;;25.50;56.70;;;;;;4952580;28;20036;-72
2022/08/28 12:59:44;;;;;;;6.20;2.30;;;25.30;56.40;;;;;;4952167;28;20477;-76
2022/08/28 13:02:29;;;;;;;7.65;2.08;;;25.20;57.30;;;;;;4952968;28;20020;-73
2022/08/28 13:05:07;;;;;;;9.00;2.00;;;25.40;56.80;;;;;;4954880;28;20035;-75
2022/08/28 13:07:46;;;;;;;9.43;1.65;;;25.30;58.90;;;;;;4967949;28;20122;-75